createdAt,value
2019-03-25T00:01:32.777Z,31.43
2019-03-25T00:04:05.526Z,34.27
2019-03-25T00:06:40.185Z,34.80
2019-03-25T00:09:12.110Z,26.43
2019-03-25T00:11:57.209Z,27.07
2019-03-25T00:14:55.390Z,31.40
2019-03-25T00:17:33.925Z,26.57
2019-03-25T00:20:05.899Z,31.43
2019-03-25T00:22:47.103Z,27.67
2019-03-25T00:25:19.067Z,27.77
2019-03-25T00:27:50.917Z,34.17
2019-03-25T00:30:23.257Z,28.03
2019-03-25T00:32:57.989Z,31.63
2019-03-25T00:35:30.144Z,24.73
2019-03-25T00:38:02.882Z,29.40
2019-03-25T00:40:34.593Z,24.53
2019-03-25T00:43:06.621Z,24.40
2019-03-25T00:45:38.418Z,26.60
2019-03-25T00:48:10.231Z,31.13
2019-03-25T00:50:43.408Z,31.07
2019-03-25T00:53:15.769Z,25.67
2019-03-25T00:55:47.371Z,33.23
2019-03-25T00:58:19.571Z,27.83
2019-03-25T01:00:51.345Z,29.53
2019-03-25T01:03:24.307Z,24.63
2019-03-25T01:05:56.906Z,21.63
2019-03-25T01:08:29.629Z,25.53
2019-03-25T01:11:01.637Z,24.00
2019-03-25T01:13:33.660Z,29.30
2019-03-25T01:16:05.767Z,29.73
2019-03-25T01:18:38.912Z,20.90
2019-03-25T01:21:10.643Z,26.00
2019-03-25T01:23:42.503Z,30.97
2019-03-25T01:26:15.071Z,28.83
2019-03-25T01:28:47.196Z,23.20
2019-03-25T01:31:19.405Z,26.60
2019-03-25T01:33:54.506Z,26.03
2019-03-25T01:36:28.130Z,21.17
2019-03-25T01:38:59.709Z,27.97
2019-03-25T01:41:32.134Z,23.73
2019-03-25T01:44:03.975Z,28.23
2019-03-25T01:46:35.681Z,26.47
2019-03-25T01:49:08.654Z,25.87
2019-03-25T01:51:43.389Z,24.17
2019-03-25T01:54:15.905Z,25.53
2019-03-25T01:56:47.712Z,28.03
2019-03-25T01:59:22.998Z,23.37
2019-03-25T02:01:55.567Z,27.33
2019-03-25T02:04:27.235Z,27.10
2019-03-25T02:06:59.024Z,22.43
2019-03-25T02:09:30.734Z,30.20
2019-03-25T02:12:02.486Z,27.47
2019-03-25T02:14:35.066Z,25.63
2019-03-25T02:17:07.213Z,25.13
2019-03-25T02:19:39.121Z,23.17
2019-03-25T02:22:11.107Z,26.60
2019-03-25T02:24:46.423Z,22.70
2019-03-25T02:27:18.720Z,27.07
2019-03-25T02:29:50.315Z,25.27
2019-03-25T02:32:23.509Z,30.37
2019-03-25T02:34:55.257Z,21.70
2019-03-25T02:37:26.891Z,17.87
2019-03-25T02:39:58.785Z,24.07
2019-03-25T02:42:30.708Z,22.00
2019-03-25T02:45:02.766Z,29.03
2019-03-25T02:47:34.993Z,26.90
2019-03-25T02:50:07.243Z,23.97
2019-03-25T02:52:39.044Z,24.90
2019-03-25T02:55:10.951Z,28.30
2019-03-25T02:57:43.355Z,19.63
2019-03-25T03:00:16.802Z,20.37
2019-03-25T03:02:48.580Z,20.30
2019-03-25T03:05:20.398Z,19.13
2019-03-25T03:07:52.178Z,19.67
2019-03-25T03:10:24.649Z,22.10
2019-03-25T03:12:56.388Z,20.37
2019-03-25T03:15:28.060Z,21.57
2019-03-25T03:18:00.216Z,23.60
2019-03-25T03:20:32.285Z,25.20
2019-03-25T03:23:03.944Z,21.60
2019-03-25T03:25:36.178Z,22.43
2019-03-25T03:28:08.890Z,20.67
2019-03-25T03:30:40.630Z,19.40
2019-03-25T03:33:13.049Z,18.57
2019-03-25T03:35:46.536Z,21.77
2019-03-25T03:38:18.097Z,15.53
2019-03-25T03:40:50.271Z,21.80
2019-03-25T03:43:21.945Z,14.10
2019-03-25T03:45:54.094Z,19.77
2019-03-25T03:48:25.812Z,39.70
2019-03-25T03:50:58.032Z,18.53
2019-03-25T03:53:29.935Z,18.90
2019-03-25T03:56:12.876Z,19.23
2019-03-25T03:58:37.612Z,15.83
2019-03-25T04:01:09.369Z,16.90
2019-03-25T04:03:48.541Z,13.73
2019-03-25T04:06:20.243Z,18.40
2019-03-25T04:08:53.077Z,14.93
2019-03-25T04:11:24.773Z,12.80
2019-03-25T04:13:56.503Z,15.83
2019-03-25T04:16:30.363Z,13.93
2019-03-25T04:19:02.537Z,16.70
2019-03-25T04:21:34.134Z,13.87
2019-03-25T04:24:07.090Z,16.07
2019-03-25T04:26:39.387Z,20.33
2019-03-25T04:29:11.444Z,19.43
2019-03-25T04:31:43.265Z,15.30
2019-03-25T04:34:15.413Z,14.73
2019-03-25T04:36:47.620Z,14.40
2019-03-25T04:39:19.470Z,10.33
2019-03-25T04:41:51.830Z,13.37
2019-03-25T04:44:23.549Z,12.13
2019-03-25T04:46:55.822Z,15.07
2019-03-25T04:49:27.813Z,14.27
2019-03-25T04:51:59.739Z,16.17
2019-03-25T04:54:31.590Z,13.10
2019-03-25T04:57:03.099Z,20.50
2019-03-25T04:59:35.018Z,11.60
2019-03-25T05:02:06.618Z,10.40
2019-03-25T05:04:38.715Z,14.03
2019-03-25T05:07:10.235Z,8.33
2019-03-25T05:09:42.199Z,11.27
2019-03-25T05:12:13.987Z,13.73
2019-03-25T05:14:45.940Z,16.63
2019-03-25T05:17:17.504Z,9.97
2019-03-25T05:19:49.524Z,13.17
2019-03-25T05:22:21.183Z,12.80
2019-03-25T05:24:52.899Z,16.57
2019-03-25T05:27:24.926Z,17.17
2019-03-25T05:29:57.078Z,10.80
2019-03-25T05:32:29.120Z,11.73
2019-03-25T05:35:00.843Z,13.00
2019-03-25T05:37:32.635Z,10.73
2019-03-25T05:40:04.570Z,12.73
2019-03-25T05:42:45.969Z,7.00
2019-03-25T05:45:17.637Z,12.60
2019-03-25T05:47:51.937Z,16.33
2019-03-25T05:50:25.481Z,13.80
2019-03-25T05:52:57.985Z,10.53
2019-03-25T05:55:29.652Z,13.83
2019-03-25T05:58:01.869Z,17.17
2019-03-25T06:00:36.086Z,17.10
2019-03-25T06:03:09.061Z,14.83
2019-03-25T06:05:43.895Z,12.27
2019-03-25T06:08:20.194Z,13.07
2019-03-25T06:10:55.874Z,11.97
2019-03-25T06:13:30.377Z,10.17
2019-03-25T06:16:02.286Z,13.10
2019-03-25T06:18:34.570Z,12.33
2019-03-25T06:21:06.635Z,11.27
2019-03-25T06:23:43.572Z,11.70
2019-03-25T06:26:15.677Z,8.90
2019-03-25T06:28:47.365Z,9.20
2019-03-25T06:31:21.882Z,11.83
2019-03-25T06:33:53.463Z,7.27
2019-03-25T06:36:29.263Z,12.47
2019-03-25T06:39:09.493Z,11.67
2019-03-25T06:41:42.691Z,10.57
2019-03-25T06:44:15.601Z,10.83
2019-03-25T06:46:47.101Z,9.03
2019-03-25T06:49:19.875Z,9.67
2019-03-25T06:52:22.089Z,11.47
2019-03-25T06:55:35.253Z,13.03
2019-03-25T06:58:10.075Z,7.40
2019-03-25T07:00:45.188Z,9.17
2019-03-25T07:03:18.604Z,11.10
2019-03-25T07:05:54.265Z,10.83
2019-03-25T07:08:25.862Z,12.87
2019-03-25T07:11:00.270Z,11.33
2019-03-25T07:14:06.393Z,12.27
2019-03-25T07:16:40.920Z,11.53
2019-03-25T07:19:16.003Z,11.80
2019-03-25T07:21:50.462Z,9.13
2019-03-25T07:24:22.172Z,13.73
2019-03-25T07:26:55.580Z,11.30
2019-03-25T07:29:28.902Z,9.63
2019-03-25T07:32:00.870Z,13.07
2019-03-25T07:34:32.567Z,9.27
2019-03-25T07:37:05.096Z,11.23
2019-03-25T07:39:37.078Z,9.90
2019-03-25T07:42:10.258Z,13.43
2019-03-25T07:44:49.282Z,10.17
2019-03-25T07:47:24.087Z,12.77
2019-03-25T07:49:56.535Z,12.40
2019-03-25T07:52:31.097Z,13.33
2019-03-25T07:55:03.378Z,14.40
2019-03-25T07:57:35.276Z,12.43
2019-03-25T08:00:14.484Z,16.23
2019-03-25T08:02:47.941Z,13.03
2019-03-25T08:05:26.470Z,14.20
2019-03-25T08:07:58.347Z,20.20
2019-03-25T08:10:40.661Z,12.80
2019-03-25T08:13:12.292Z,16.97
2019-03-25T08:15:47.405Z,14.03
2019-03-25T08:18:19.761Z,16.60
2019-03-25T08:20:51.351Z,15.67
2019-03-25T08:23:25.364Z,15.97
2019-03-25T08:26:00.353Z,16.27
2019-03-25T08:28:32.373Z,21.07
2019-03-25T08:31:04.171Z,13.33
2019-03-25T08:33:39.797Z,19.83
2019-03-25T08:36:25.414Z,15.57
2019-03-25T08:39:01.879Z,15.20
2019-03-25T08:41:35.521Z,18.80
2019-03-25T08:44:12.303Z,14.33
2019-03-25T08:46:43.729Z,17.37
2019-03-25T08:49:15.678Z,21.53
2019-03-25T08:51:47.317Z,10.03
2019-03-25T08:54:19.006Z,13.07
2019-03-25T08:56:50.872Z,13.27
2019-03-25T08:59:25.927Z,14.20
2019-03-25T09:02:03.715Z,14.10
2019-03-25T09:04:35.434Z,14.47
2019-03-25T09:07:11.840Z,16.87
2019-03-25T09:09:45.456Z,17.23
2019-03-25T09:12:18.951Z,16.07
2019-03-25T09:14:51.469Z,14.03
2019-03-25T09:17:26.327Z,13.87
2019-03-25T09:20:08.477Z,12.47
2019-03-25T09:22:44.203Z,14.37
2019-03-25T09:25:16.449Z,12.90
2019-03-25T09:27:48.744Z,13.47
2019-03-25T09:30:56.284Z,11.97
2019-03-25T09:33:33.653Z,11.37
2019-03-25T09:36:18.890Z,7.47
2019-03-25T09:38:56.151Z,8.00
2019-03-25T09:41:29.204Z,7.63
2019-03-25T09:44:02.667Z,5.50
2019-03-25T09:46:34.429Z,4.73
2019-03-25T09:49:07.421Z,9.07
2019-03-25T09:51:39.532Z,11.33
2019-03-25T09:54:11.504Z,6.87
2019-03-25T09:56:44.760Z,6.03
2019-03-25T09:59:20.384Z,8.37
2019-03-25T10:01:52.954Z,13.73
2019-03-25T10:04:27.668Z,5.63
2019-03-25T10:07:01.324Z,6.00
2019-03-25T10:09:33.265Z,7.13
2019-03-25T10:12:14.686Z,9.33
2019-03-25T10:14:47.854Z,5.83
2019-03-25T10:17:20.564Z,11.37
2019-03-25T10:19:59.368Z,8.10
2019-03-25T10:22:37.755Z,5.27
2019-03-25T10:25:12.094Z,4.17
2019-03-25T10:27:45.551Z,6.00
2019-03-25T10:30:19.106Z,4.17
2019-03-25T10:32:53.412Z,5.03
2019-03-25T10:35:25.461Z,6.77
2019-03-25T10:38:02.244Z,5.50
2019-03-25T10:40:43.542Z,3.60
2019-03-25T10:43:16.161Z,3.83
2019-03-25T10:45:48.187Z,5.03
2019-03-25T10:48:25.662Z,3.53
2019-03-25T10:51:25.665Z,3.23
2019-03-25T10:54:04.815Z,2.37
2019-03-25T10:56:41.868Z,2.37
2019-03-25T10:59:14.101Z,4.67
2019-03-25T11:01:46.112Z,4.30
2019-03-25T11:04:18.437Z,5.23
2019-03-25T11:06:54.428Z,2.77
2019-03-25T11:09:39.450Z,3.87
2019-03-25T11:12:18.490Z,5.23
2019-03-25T11:14:51.076Z,4.53
2019-03-25T11:17:23.107Z,4.03
2019-03-25T11:20:01.082Z,3.30
2019-03-25T11:22:41.555Z,3.03
2019-03-25T11:25:21.682Z,5.20
2019-03-25T11:27:55.032Z,5.60
2019-03-25T11:31:07.909Z,2.90
2019-03-25T11:33:42.564Z,2.00
2019-03-25T11:36:28.998Z,1.53
2019-03-25T11:39:03.707Z,3.13
2019-03-25T11:41:38.295Z,1.80
2019-03-25T11:44:10.071Z,4.73
2019-03-25T11:46:52.081Z,3.83
2019-03-25T11:49:26.326Z,2.33
2019-03-25T11:52:24.182Z,2.97
2019-03-25T11:54:59.572Z,3.07
2019-03-25T11:57:33.864Z,3.00
2019-03-25T12:00:10.064Z,2.87
2019-03-25T12:02:46.103Z,1.63
2019-03-25T12:05:19.921Z,2.73
2019-03-25T12:07:56.905Z,3.17
2019-03-25T12:10:36.337Z,2.10
2019-03-25T12:13:09.719Z,2.77
2019-03-25T12:15:42.207Z,2.53
2019-03-25T12:18:17.083Z,1.90
2019-03-25T12:20:48.711Z,5.17
2019-03-25T12:23:26.381Z,4.43
2019-03-25T12:25:53.952Z,4.67
2019-03-25T12:28:34.077Z,1.47
2019-03-25T12:31:19.499Z,2.70
2019-03-25T12:34:02.281Z,3.53
2019-03-25T12:36:40.453Z,3.50
2019-03-25T12:39:25.228Z,6.20
2019-03-25T12:42:14.019Z,2.63
2019-03-25T12:44:57.304Z,2.57
2019-03-25T12:47:30.813Z,1.80
2019-03-25T12:50:10.122Z,2.93
2019-03-25T12:52:51.088Z,2.47
2019-03-25T12:55:26.937Z,3.10
2019-03-25T12:58:10.504Z,2.53
2019-03-25T13:00:59.302Z,3.53
2019-03-25T13:04:09.717Z,5.27
2019-03-25T13:07:32.883Z,3.50
2019-03-25T13:10:09.423Z,1.23
2019-03-25T13:12:42.282Z,3.67
2019-03-25T13:15:18.362Z,5.73
2019-03-25T13:17:52.080Z,1.80
2019-03-25T13:20:26.153Z,6.07
2019-03-25T13:23:06.201Z,2.37
2019-03-25T13:25:40.338Z,3.90
2019-03-25T13:28:14.270Z,3.00
2019-03-25T13:30:46.253Z,4.93
2019-03-25T13:33:21.959Z,1.83
2019-03-25T13:36:02.541Z,1.50
2019-03-25T13:38:41.603Z,3.37
2019-03-25T13:41:16.938Z,1.37
2019-03-25T13:43:53.190Z,3.20
2019-03-25T13:46:26.827Z,1.10
2019-03-25T13:49:01.775Z,1.20
2019-03-25T13:51:47.701Z,1.63
2019-03-25T13:54:29.354Z,2.10
2019-03-25T13:57:07.970Z,3.70
2019-03-25T13:59:43.264Z,3.60
2019-03-25T14:02:16.885Z,0.60
2019-03-25T14:04:51.449Z,1.43
2019-03-25T14:07:27.152Z,4.33
2019-03-25T14:10:04.407Z,0.33
2019-03-25T14:12:41.420Z,1.50
2019-03-25T14:15:16.120Z,0.70
2019-03-25T14:17:54.276Z,0.20
2019-03-25T14:20:40.861Z,0.53
2019-03-25T14:23:14.569Z,0.30
2019-03-25T14:25:47.344Z,0.47
2019-03-25T14:28:20.792Z,0.40
2019-03-25T14:30:52.973Z,1.00
2019-03-25T14:33:32.993Z,1.70
2019-03-25T14:36:09.672Z,1.03
2019-03-25T14:38:41.822Z,0.83
2019-03-25T14:41:13.851Z,1.93
2019-03-25T14:43:47.675Z,1.27
2019-03-25T14:46:22.062Z,0.93
2019-03-25T14:49:24.832Z,1.80
2019-03-25T14:52:24.577Z,1.77
2019-03-25T14:54:55.600Z,2.17
2019-03-25T14:57:29.178Z,1.73
2019-03-25T15:00:10.372Z,1.43
2019-03-25T15:03:20.876Z,1.73
2019-03-25T15:05:54.803Z,0.80
2019-03-25T15:08:28.840Z,1.00
2019-03-25T15:11:01.893Z,1.60
2019-03-25T15:13:49.866Z,2.40
2019-03-25T15:16:24.092Z,1.40
2019-03-25T15:19:02.046Z,1.37
2019-03-25T15:21:34.106Z,1.27
2019-03-25T15:24:06.388Z,1.10
2019-03-25T15:26:44.078Z,1.00
2019-03-25T15:29:18.626Z,1.13
2019-03-25T15:31:59.281Z,1.20
2019-03-25T15:34:34.104Z,1.00
2019-03-25T15:37:10.460Z,1.30
2019-03-25T15:39:47.636Z,6.23
2019-03-25T15:42:24.007Z,3.53
2019-03-25T15:44:56.193Z,1.60
2019-03-25T15:47:30.698Z,1.10
2019-03-25T15:50:02.405Z,2.57
2019-03-25T15:52:41.391Z,1.00
2019-03-25T15:55:22.340Z,1.37
2019-03-25T15:58:05.819Z,0.97
2019-03-25T16:00:56.092Z,1.40
2019-03-25T16:03:28.693Z,0.87
2019-03-25T16:06:04.810Z,1.27
2019-03-25T16:08:43.147Z,1.20
2019-03-25T16:11:20.132Z,1.10
2019-03-25T16:15:08.482Z,1.43
2019-03-25T16:17:47.887Z,1.50
2019-03-25T16:20:26.059Z,2.23
2019-03-25T16:22:57.081Z,2.23
2019-03-25T16:25:29.919Z,2.97
2019-03-25T16:28:06.573Z,1.60
2019-03-25T16:30:38.198Z,2.30
2019-03-25T16:33:11.480Z,2.80
2019-03-25T16:35:43.748Z,3.40
2019-03-25T16:38:18.063Z,2.10
2019-03-25T16:40:52.168Z,1.90
2019-03-25T16:43:25.456Z,2.50
2019-03-25T16:46:00.302Z,2.30
2019-03-25T16:48:35.136Z,1.80
2019-03-25T16:51:18.365Z,1.70
2019-03-25T16:53:56.656Z,2.03
2019-03-25T16:56:35.256Z,2.93
2019-03-25T16:59:14.869Z,2.50
2019-03-25T17:02:12.506Z,2.13
2019-03-25T17:04:45.086Z,1.83
2019-03-25T17:07:25.329Z,2.90
2019-03-25T17:10:05.449Z,1.40
2019-03-25T17:12:43.567Z,1.60
2019-03-25T17:15:18.105Z,1.87
2019-03-25T17:18:01.548Z,1.50
2019-03-25T17:20:38.376Z,1.70
2019-03-25T17:23:11.433Z,2.07
2019-03-25T17:25:52.665Z,1.50
2019-03-25T17:28:21.114Z,1.60
2019-03-25T17:30:55.563Z,1.73
2019-03-25T17:33:33.339Z,1.53
2019-03-25T17:36:14.509Z,1.60
2019-03-25T17:38:50.979Z,1.47
2019-03-25T17:41:30.367Z,1.70
2019-03-25T17:44:03.780Z,1.77
2019-03-25T17:46:38.224Z,1.70
2019-03-25T17:49:11.236Z,1.70
2019-03-25T17:51:45.329Z,1.53
2019-03-25T17:54:19.895Z,2.23
2019-03-25T17:56:52.086Z,2.57
2019-03-25T17:59:28.018Z,2.87
2019-03-25T18:02:00.500Z,2.00
2019-03-25T18:04:43.886Z,2.47
2019-03-25T18:07:22.331Z,2.37
2019-03-25T18:09:59.831Z,4.93
2019-03-25T18:12:39.150Z,6.67
2019-03-25T18:15:25.788Z,3.20
2019-03-25T18:17:59.213Z,2.50
2019-03-25T18:20:38.025Z,2.10
2019-03-25T18:23:12.265Z,1.70
2019-03-25T18:25:53.840Z,1.80
2019-03-25T18:28:36.344Z,1.97
2019-03-25T18:31:14.795Z,2.33
2019-03-25T18:33:47.366Z,2.47
2019-03-25T18:36:29.292Z,3.13
2019-03-25T18:39:07.329Z,4.83
2019-03-25T18:41:39.772Z,5.97
2019-03-25T18:44:15.242Z,8.13
2019-03-25T18:46:50.031Z,10.70
2019-03-25T18:49:28.385Z,12.03
2019-03-25T18:52:02.343Z,12.07
2019-03-25T18:54:34.511Z,9.67
2019-03-25T18:57:10.264Z,8.43
2019-03-25T18:59:44.102Z,6.37
2019-03-25T19:02:23.177Z,4.00
2019-03-25T19:05:03.102Z,3.00
2019-03-25T19:08:10.682Z,4.23
2019-03-25T19:10:51.641Z,3.93
2019-03-25T19:13:34.646Z,3.33
2019-03-25T19:16:08.478Z,2.70
2019-03-25T19:18:57.733Z,3.40
2019-03-25T19:21:46.323Z,2.47
2019-03-25T19:24:24.921Z,2.50
2019-03-25T19:27:04.124Z,1.80
2019-03-25T19:29:38.339Z,2.17
2019-03-25T19:32:17.758Z,1.60
2019-03-25T19:34:55.109Z,1.60
2019-03-25T19:37:28.241Z,2.20
2019-03-25T19:40:02.935Z,1.60
2019-03-25T19:42:44.065Z,1.70
2019-03-25T19:45:16.930Z,1.70
2019-03-25T19:47:58.220Z,1.40
2019-03-25T19:50:37.421Z,2.57
2019-03-25T19:53:19.005Z,2.20
2019-03-25T19:55:45.202Z,1.83
2019-03-25T19:58:27.836Z,1.70
2019-03-25T20:01:06.705Z,2.53
2019-03-25T20:03:45.947Z,2.63
2019-03-25T20:06:29.372Z,1.33
2019-03-25T20:09:35.136Z,1.40
2019-03-25T20:12:17.386Z,1.47
2019-03-25T20:14:59.890Z,2.27
2019-03-25T20:17:43.414Z,1.30
2019-03-25T20:20:18.102Z,2.63
2019-03-25T20:22:53.307Z,3.67
2019-03-25T20:25:25.642Z,4.63
2019-03-25T20:28:01.352Z,2.93
2019-03-25T20:30:35.821Z,4.83
2019-03-25T20:33:10.302Z,1.80
2019-03-25T20:35:48.351Z,3.33
2019-03-25T20:38:26.632Z,3.10
2019-03-25T20:40:58.419Z,2.90
2019-03-25T20:43:30.233Z,2.90
2019-03-25T20:46:02.274Z,2.10
2019-03-25T20:48:38.742Z,3.73
2019-03-25T20:51:10.806Z,4.73
2019-03-25T20:53:44.232Z,2.33
2019-03-25T20:56:22.071Z,2.87
2019-03-25T20:58:56.953Z,4.23
2019-03-25T21:01:29.111Z,3.60
2019-03-25T21:04:01.223Z,2.83
2019-03-25T21:06:33.162Z,1.90
2019-03-25T21:09:22.109Z,4.33
2019-03-25T21:12:03.123Z,2.80
2019-03-25T21:14:35.365Z,2.30
2019-03-25T21:17:10.007Z,1.60
2019-03-25T21:19:44.931Z,2.90
2019-03-25T21:22:21.686Z,1.87
2019-03-25T21:24:57.818Z,3.63
2019-03-25T21:27:29.962Z,1.50
2019-03-25T21:30:08.194Z,1.43
2019-03-25T21:32:57.716Z,4.33
2019-03-25T21:35:21.249Z,2.00
2019-03-25T21:37:53.324Z,1.63
2019-03-25T21:40:25.411Z,2.97
2019-03-25T21:42:57.131Z,5.03
2019-03-25T21:45:32.466Z,2.13
2019-03-25T21:48:04.700Z,2.17
2019-03-25T21:50:42.293Z,2.00
2019-03-25T21:53:17.981Z,2.70
2019-03-25T21:55:58.488Z,3.93
2019-03-25T21:58:34.508Z,4.33
2019-03-25T22:01:06.640Z,3.70
2019-03-25T22:03:38.439Z,4.87
2019-03-25T22:06:13.607Z,3.10
2019-03-25T22:08:45.461Z,3.57
2019-03-25T22:11:18.454Z,4.13
2019-03-25T22:13:51.755Z,3.67
2019-03-25T22:16:23.921Z,4.10
2019-03-25T22:18:55.887Z,6.40
2019-03-25T22:21:31.283Z,3.27
2019-03-25T22:24:07.089Z,5.50
2019-03-25T22:26:47.511Z,3.87
2019-03-25T22:29:21.081Z,4.40
2019-03-25T22:31:53.373Z,3.67
2019-03-25T22:34:28.013Z,4.20
2019-03-25T22:37:07.365Z,3.17
2019-03-25T22:39:44.475Z,4.10
2019-03-25T22:42:17.289Z,4.50
2019-03-25T22:44:50.739Z,3.63
2019-03-25T22:47:24.946Z,4.97
2019-03-25T22:49:58.554Z,4.43
2019-03-25T22:52:30.937Z,7.60
2019-03-25T22:55:04.660Z,3.63
2019-03-25T22:57:37.080Z,4.93
2019-03-25T23:00:09.404Z,4.20
2019-03-25T23:02:42.872Z,5.20
2019-03-25T23:05:14.974Z,4.10
2019-03-25T23:07:46.671Z,5.23
2019-03-25T23:10:18.837Z,4.13
2019-03-25T23:12:50.759Z,6.73
2019-03-25T23:15:23.369Z,5.93
2019-03-25T23:17:55.139Z,3.67
2019-03-25T23:20:33.440Z,7.30
2019-03-25T23:23:08.509Z,5.20
2019-03-25T23:25:40.543Z,4.43
2019-03-25T23:28:15.249Z,5.23
2019-03-25T23:30:53.930Z,5.13
2019-03-25T23:33:33.948Z,5.53
2019-03-25T23:36:05.686Z,7.23
2019-03-25T23:38:38.294Z,5.70
2019-03-25T23:41:09.941Z,6.43
2019-03-25T23:43:42.043Z,5.83
2019-03-25T23:46:17.308Z,5.00
2019-03-25T23:48:56.089Z,5.03
2019-03-25T23:51:28.325Z,3.70
2019-03-25T23:54:13.094Z,6.80
2019-03-25T23:56:44.892Z,8.30
2019-03-25T23:59:17.499Z,8.10
